createdAt,value
2022-11-24T00:00:21.627Z,3.42
2022-11-24T00:02:52.685Z,2.90
2022-11-24T00:05:21.183Z,3.40
2022-11-24T00:07:49.650Z,3.60
2022-11-24T00:10:21.406Z,2.80
2022-11-24T00:12:52.676Z,3.15
2022-11-24T00:15:20.935Z,3.20
2022-11-24T00:17:49.230Z,5.05
2022-11-24T00:20:19.901Z,3.60
2022-11-24T00:22:48.426Z,3.38
2022-11-24T00:25:19.438Z,6.10
2022-11-24T00:27:50.826Z,4.28
2022-11-24T00:30:19.257Z,4.13
2022-11-24T00:32:47.612Z,4.90
2022-11-24T00:35:25.066Z,4.13
2022-11-24T00:37:54.852Z,3.58
2022-11-24T00:40:23.237Z,4.85
2022-11-24T00:42:51.576Z,3.70
2022-11-24T00:45:23.455Z,3.70
2022-11-24T00:47:51.751Z,5.63
2022-11-24T00:50:21.060Z,4.68
2022-11-24T00:52:49.381Z,4.18
2022-11-24T00:55:17.910Z,4.18
2022-11-24T00:57:46.231Z,3.92
2022-11-24T01:00:15.316Z,3.72
2022-11-24T01:02:46.793Z,4.07
2022-11-24T01:05:17.553Z,4.22
2022-11-24T01:07:45.870Z,4.05
2022-11-24T01:10:18.411Z,2.15
2022-11-24T01:12:46.756Z,3.60
2022-11-24T01:15:17.246Z,3.58
2022-11-24T01:17:45.575Z,3.97
2022-11-24T01:20:17.344Z,4.20
2022-11-24T01:22:48.611Z,4.10
2022-11-24T01:25:17.850Z,4.53
2022-11-24T01:27:48.395Z,3.97
2022-11-24T01:30:16.730Z,4.75
2022-11-24T01:32:50.430Z,3.13
2022-11-24T01:35:21.925Z,4.63
2022-11-24T01:37:52.392Z,2.78
2022-11-24T01:40:20.689Z,3.05
2022-11-24T01:42:51.532Z,4.57
2022-11-24T01:45:33.420Z,3.85
2022-11-24T01:48:08.584Z,6.15
2022-11-24T01:50:37.856Z,3.83
2022-11-24T01:53:06.702Z,4.28
2022-11-24T01:55:38.180Z,4.03
2022-11-24T01:58:13.731Z,4.60
2022-11-24T02:00:47.623Z,3.90
2022-11-24T02:03:20.103Z,4.85
2022-11-24T02:05:58.953Z,6.38
2022-11-24T02:08:31.084Z,11.20
2022-11-24T02:10:59.615Z,7.15
2022-11-24T02:13:28.070Z,4.72
2022-11-24T02:15:59.362Z,6.47
2022-11-24T02:18:37.699Z,5.78
2022-11-24T02:21:09.548Z,4.35
2022-11-24T02:23:37.872Z,4.75
2022-11-24T02:26:56.900Z,5.30
2022-11-24T02:29:25.224Z,4.07
2022-11-24T02:32:00.585Z,5.63
2022-11-24T02:34:29.226Z,7.00
2022-11-24T02:36:57.544Z,7.55
2022-11-24T02:39:26.175Z,6.13
2022-11-24T02:42:07.298Z,6.20
2022-11-24T02:44:40.669Z,6.25
2022-11-24T02:47:19.988Z,10.45
2022-11-24T02:49:48.259Z,6.72
2022-11-24T02:52:16.901Z,5.32
2022-11-24T02:54:45.349Z,5.65
2022-11-24T02:57:14.462Z,6.60
2022-11-24T02:59:45.206Z,5.43
2022-11-24T03:02:16.420Z,6.28
2022-11-24T03:04:47.618Z,5.13
2022-11-24T03:07:16.336Z,5.40
2022-11-24T03:09:44.636Z,5.05
2022-11-24T03:12:12.901Z,5.90
2022-11-24T03:14:43.552Z,8.70
2022-11-24T03:17:11.925Z,8.82
2022-11-24T03:19:41.486Z,7.40
2022-11-24T03:22:09.865Z,8.00
2022-11-24T03:24:39.183Z,6.30
2022-11-24T03:27:10.506Z,6.65
2022-11-24T03:29:38.935Z,7.32
2022-11-24T03:32:07.305Z,5.75
2022-11-24T03:34:38.016Z,7.75
2022-11-24T03:37:10.871Z,9.65
2022-11-24T03:39:41.856Z,10.90
2022-11-24T03:42:10.351Z,6.88
2022-11-24T03:44:38.620Z,10.13
2022-11-24T03:47:08.445Z,6.70
2022-11-24T03:49:37.551Z,8.65
2022-11-24T03:52:08.318Z,7.53
2022-11-24T03:54:40.226Z,8.93
2022-11-24T03:57:12.057Z,5.85
2022-11-24T03:59:43.461Z,7.75
2022-11-24T04:02:14.582Z,6.43
2022-11-24T04:04:49.631Z,6.53
2022-11-24T04:07:20.300Z,5.22
2022-11-24T04:09:50.751Z,6.65
2022-11-24T04:12:40.102Z,6.95
2022-11-24T04:15:08.901Z,7.45
2022-11-24T04:17:37.506Z,5.25
2022-11-24T04:20:06.633Z,7.40
2022-11-24T04:22:42.182Z,7.05
2022-11-24T04:25:11.582Z,6.47
2022-11-24T04:27:45.938Z,7.15
2022-11-24T04:30:17.379Z,6.72
2022-11-24T04:32:51.523Z,8.48
2022-11-24T04:35:23.407Z,6.68
2022-11-24T04:37:51.908Z,6.80
2022-11-24T04:40:25.647Z,10.50
2022-11-24T04:42:57.858Z,6.10
2022-11-24T04:45:29.529Z,6.75
2022-11-24T04:47:57.848Z,7.03
2022-11-24T04:50:26.206Z,8.07
2022-11-24T04:53:00.246Z,6.68
2022-11-24T04:55:28.592Z,7.05
2022-11-24T04:57:56.906Z,6.45
2022-11-24T05:00:32.689Z,7.43
2022-11-24T05:03:01.056Z,6.45
2022-11-24T05:05:32.216Z,8.55
2022-11-24T05:08:03.315Z,7.30
2022-11-24T05:10:44.116Z,7.30
2022-11-24T05:13:16.269Z,9.38
2022-11-24T05:15:50.197Z,8.63
2022-11-24T05:18:22.427Z,7.70
2022-11-24T05:20:55.168Z,7.40
2022-11-24T05:23:25.937Z,8.95
2022-11-24T05:26:05.662Z,7.07
2022-11-24T05:28:37.062Z,8.38
2022-11-24T05:31:10.900Z,7.63
2022-11-24T05:33:48.422Z,7.95
2022-11-24T05:36:35.141Z,7.22
2022-11-24T05:39:03.464Z,6.95
2022-11-24T05:41:34.127Z,7.18
2022-11-24T05:44:07.433Z,8.55
2022-11-24T05:46:38.389Z,8.65
2022-11-24T05:49:09.496Z,7.13
2022-11-24T05:51:37.956Z,8.32
2022-11-24T05:54:08.349Z,7.55
2022-11-24T05:56:39.621Z,8.45
2022-11-24T05:59:10.006Z,8.70
2022-11-24T06:01:38.803Z,9.25
2022-11-24T06:04:12.876Z,9.82
2022-11-24T06:06:44.211Z,6.53
2022-11-24T06:09:14.231Z,9.65
2022-11-24T06:11:42.631Z,8.80
2022-11-24T06:14:13.721Z,10.32
2022-11-24T06:16:43.952Z,10.05
2022-11-24T06:19:17.411Z,8.18
2022-11-24T06:21:49.346Z,9.65
2022-11-24T06:24:19.370Z,9.18
2022-11-24T06:26:50.661Z,11.05
2022-11-24T06:29:21.830Z,13.00
2022-11-24T06:31:53.209Z,9.98
2022-11-24T06:34:24.281Z,10.57
2022-11-24T06:36:57.349Z,9.15
2022-11-24T06:39:31.417Z,10.45
2022-11-24T06:41:59.945Z,13.38
2022-11-24T06:44:28.350Z,15.02
2022-11-24T06:46:59.249Z,10.70
2022-11-24T06:49:37.220Z,11.27
2022-11-24T06:52:08.471Z,12.55
2022-11-24T06:54:44.729Z,11.20
2022-11-24T06:57:20.196Z,12.07
2022-11-24T06:59:48.464Z,13.80
2022-11-24T07:02:20.001Z,12.73
2022-11-24T07:04:48.292Z,10.63
2022-11-24T07:07:21.875Z,12.05
2022-11-24T07:09:54.440Z,12.45
2022-11-24T07:12:27.776Z,10.98
2022-11-24T07:15:03.481Z,13.32
2022-11-24T07:17:38.983Z,10.90
2022-11-24T07:20:09.166Z,12.07
2022-11-24T07:22:37.541Z,11.27
2022-11-24T07:25:11.149Z,10.95
2022-11-24T07:27:45.061Z,11.18
2022-11-24T07:30:16.507Z,11.10
2022-11-24T07:32:44.766Z,13.27
2022-11-24T07:35:18.786Z,11.32
2022-11-24T07:37:49.282Z,16.25
2022-11-24T07:40:20.902Z,13.48
2022-11-24T07:42:49.222Z,14.35
2022-11-24T07:45:23.590Z,16.30
2022-11-24T07:47:54.925Z,16.60
2022-11-24T07:50:28.092Z,16.95
2022-11-24T07:53:06.666Z,13.32
2022-11-24T07:55:48.157Z,15.68
2022-11-24T07:58:16.752Z,15.27
2022-11-24T08:00:49.222Z,14.88
2022-11-24T08:03:31.438Z,14.00
2022-11-24T08:09:07.967Z,13.60
2022-11-24T08:11:41.725Z,12.43
2022-11-24T08:14:12.396Z,13.40
2022-11-24T08:16:46.512Z,12.55
2022-11-24T08:19:27.171Z,14.43
2022-11-24T08:22:03.910Z,12.52
2022-11-24T08:24:42.572Z,12.48
2022-11-24T08:27:10.886Z,13.88
2022-11-24T08:29:47.945Z,13.25
2022-11-24T08:32:21.927Z,11.02
2022-11-24T08:35:19.679Z,11.50
2022-11-24T08:37:54.208Z,13.80
2022-11-24T08:40:28.464Z,11.05
2022-11-24T08:43:01.349Z,13.18
2022-11-24T08:45:35.466Z,10.65
2022-11-24T08:48:24.838Z,10.82
2022-11-24T08:50:55.344Z,10.73
2022-11-24T08:53:34.741Z,11.55
2022-11-24T08:56:08.881Z,11.73
2022-11-24T08:58:48.744Z,12.65
2022-11-24T09:01:20.831Z,11.88
2022-11-24T09:03:55.377Z,11.52
2022-11-24T09:06:43.273Z,11.20
2022-11-24T09:09:15.402Z,9.80
2022-11-24T09:11:49.071Z,11.30
2022-11-24T09:14:22.451Z,10.38
2022-11-24T09:16:55.630Z,10.35
2022-11-24T09:19:26.991Z,11.10
2022-11-24T09:22:05.218Z,11.80
2022-11-24T09:24:36.499Z,9.88
2022-11-24T09:27:12.348Z,11.80
2022-11-24T09:29:40.666Z,10.52
2022-11-24T09:32:15.426Z,12.13
2022-11-24T09:37:11.627Z,11.82
2022-11-24T09:39:45.675Z,10.98
2022-11-24T09:42:59.942Z,11.65
2022-11-24T09:46:05.546Z,10.43
2022-11-24T09:48:51.962Z,13.90
2022-11-24T09:51:35.779Z,11.30
2022-11-24T09:54:44.284Z,12.13
2022-11-24T09:57:38.982Z,12.02
2022-11-24T10:00:16.904Z,10.23
2022-11-24T10:03:00.165Z,10.57
2022-11-24T10:05:38.326Z,9.13
2022-11-24T10:08:35.542Z,14.60
2022-11-24T10:11:16.114Z,10.13
2022-11-24T10:14:02.511Z,10.73
2022-11-24T10:16:46.499Z,9.60
2022-11-24T10:19:47.996Z,9.45
2022-11-24T10:22:50.339Z,10.65
2022-11-24T10:25:44.977Z,10.45
2022-11-24T10:28:20.046Z,12.00
2022-11-24T10:31:04.141Z,9.95
2022-11-24T10:33:52.473Z,12.07
2022-11-24T10:36:48.787Z,10.15
2022-11-24T10:39:28.268Z,9.60
2022-11-24T10:42:28.763Z,11.90
2022-11-24T10:45:24.546Z,10.70
2022-11-24T10:48:05.067Z,11.25
2022-11-24T10:50:42.501Z,9.50
2022-11-24T10:53:28.736Z,11.70
2022-11-24T10:55:57.077Z,12.48
2022-11-24T10:58:40.822Z,10.27
2022-11-24T11:01:17.863Z,10.48
2022-11-24T11:04:03.016Z,9.93
2022-11-24T11:09:31.731Z,10.02
2022-11-24T11:12:36.309Z,10.93
2022-11-24T11:15:28.402Z,9.20
2022-11-24T11:18:20.835Z,10.77
2022-11-24T11:21:05.808Z,11.02
2022-11-24T11:23:45.862Z,9.90
2022-11-24T11:26:34.662Z,8.95
2022-11-24T11:35:28.737Z,8.50
2022-11-24T11:38:09.984Z,10.68
2022-11-24T11:40:50.472Z,8.48
2022-11-24T11:43:42.182Z,7.68
2022-11-24T11:46:35.865Z,9.82
2022-11-24T11:49:07.142Z,8.90
2022-11-24T11:52:21.106Z,10.70
2022-11-24T11:55:35.342Z,7.80
2022-11-24T11:58:21.084Z,10.18
2022-11-24T12:01:12.430Z,9.27
2022-11-24T12:03:52.843Z,8.55
2022-11-24T12:07:05.991Z,10.13
2022-11-24T12:10:02.374Z,9.55
2022-11-24T12:13:17.247Z,10.90
2022-11-24T12:16:03.503Z,9.15
2022-11-24T12:18:57.731Z,9.15
2022-11-24T12:21:45.261Z,10.68
2022-11-24T12:24:34.142Z,8.75
2022-11-24T12:27:23.593Z,10.68
2022-11-24T12:30:30.977Z,8.77
2022-11-24T12:33:39.992Z,10.50
2022-11-24T12:36:38.432Z,8.13
2022-11-24T12:39:27.143Z,10.85
2022-11-24T12:42:27.241Z,9.35
2022-11-24T12:45:45.971Z,10.13
2022-11-24T12:48:37.607Z,8.82
2022-11-24T12:51:21.365Z,9.65
2022-11-24T12:54:02.425Z,9.73
2022-11-24T12:56:49.035Z,8.05
2022-11-24T12:59:43.647Z,10.43
2022-11-24T13:02:56.610Z,7.57
2022-11-24T13:05:32.765Z,7.85
2022-11-24T13:08:09.383Z,8.18
2022-11-24T13:11:01.129Z,9.75
2022-11-24T13:13:51.371Z,9.43
2022-11-24T13:16:36.271Z,10.45
2022-11-24T13:19:23.822Z,10.98
2022-11-24T13:24:49.223Z,14.13
2022-11-24T13:27:38.445Z,10.95
2022-11-24T13:30:43.300Z,10.55
2022-11-24T13:33:46.495Z,7.68
2022-11-24T13:36:27.220Z,8.95
2022-11-24T13:39:19.805Z,7.22
2022-11-24T13:44:48.203Z,9.60
2022-11-24T13:47:46.221Z,9.60
2022-11-24T13:50:24.109Z,8.05
2022-11-24T13:53:27.841Z,8.52
2022-11-24T13:56:23.940Z,8.75
2022-11-24T13:59:15.827Z,15.98
2022-11-24T14:02:05.207Z,11.80
2022-11-24T14:04:38.956Z,12.38
2022-11-24T14:07:18.050Z,10.88
2022-11-24T14:09:58.505Z,9.38
2022-11-24T14:12:36.297Z,9.82
2022-11-24T14:15:40.166Z,7.88
2022-11-24T14:18:43.726Z,8.52
2022-11-24T14:21:36.457Z,8.65
2022-11-24T14:24:27.755Z,9.77
2022-11-24T14:27:03.480Z,7.20
2022-11-24T14:32:31.746Z,7.30
2022-11-24T14:35:08.022Z,8.00
2022-11-24T14:37:42.576Z,7.18
2022-11-24T14:40:46.274Z,7.63
2022-11-24T14:43:35.708Z,8.05
2022-11-24T14:46:27.331Z,6.13
2022-11-24T14:49:27.905Z,8.10
2022-11-24T14:52:15.697Z,8.93
2022-11-24T14:55:07.548Z,9.60
2022-11-24T14:58:04.081Z,8.90
2022-11-24T15:00:48.562Z,8.00
2022-11-24T15:03:20.400Z,10.82
2022-11-24T15:06:04.627Z,13.05
2022-11-24T15:08:59.517Z,12.17
2022-11-24T15:11:52.096Z,9.75
2022-11-24T15:14:38.334Z,6.15
2022-11-24T15:17:10.536Z,7.30
2022-11-24T15:19:46.641Z,7.28
2022-11-24T15:22:40.101Z,6.50
2022-11-24T15:25:36.308Z,6.85
2022-11-24T15:28:17.640Z,5.00
2022-11-24T15:30:58.351Z,7.65
2022-11-24T15:33:38.011Z,8.18
2022-11-24T15:36:18.835Z,9.43
2022-11-24T15:38:55.340Z,8.43
2022-11-24T15:41:37.027Z,10.35
2022-11-24T15:44:11.905Z,9.68
2022-11-24T15:46:43.352Z,10.18
2022-11-24T15:49:20.687Z,13.18
2022-11-24T15:52:03.578Z,14.05
2022-11-24T15:54:40.666Z,20.77
2022-11-24T15:57:27.174Z,24.13
2022-11-24T16:00:21.847Z,23.13
2022-11-24T16:03:24.005Z,22.02
2022-11-24T16:08:47.766Z,12.40
2022-11-24T16:11:16.082Z,14.75
2022-11-24T16:13:52.392Z,19.48
2022-11-24T16:16:27.195Z,16.38
2022-11-24T16:19:17.791Z,15.45
2022-11-24T16:21:49.349Z,13.60
2022-11-24T16:24:34.783Z,13.88
2022-11-24T16:27:25.445Z,9.98
2022-11-24T16:30:16.449Z,10.45
2022-11-24T16:32:47.622Z,12.80
2022-11-24T16:35:22.686Z,11.50
2022-11-24T16:38:02.322Z,10.10
2022-11-24T16:40:35.539Z,9.93
2022-11-24T16:43:18.605Z,7.10
2022-11-24T16:46:23.769Z,7.72
2022-11-24T16:49:04.925Z,7.53
2022-11-24T16:51:35.588Z,9.60
2022-11-24T16:54:10.663Z,6.28
2022-11-24T16:56:47.047Z,7.60
2022-11-24T16:59:17.975Z,6.45
2022-11-24T17:01:52.059Z,4.95
2022-11-24T17:04:25.261Z,5.50
2022-11-24T17:07:11.833Z,5.85
2022-11-24T17:09:42.356Z,5.53
2022-11-24T17:12:10.647Z,5.03
2022-11-24T17:15:09.338Z,5.38
2022-11-24T17:18:01.175Z,6.05
2022-11-24T17:23:11.264Z,5.43
2022-11-24T17:25:56.725Z,6.07
2022-11-24T17:28:31.533Z,4.93
2022-11-24T17:31:18.494Z,5.75
2022-11-24T17:33:48.711Z,5.45
2022-11-24T17:36:17.110Z,5.22
2022-11-24T17:38:51.774Z,8.35
2022-11-24T17:41:32.092Z,5.43
2022-11-24T17:44:08.227Z,5.88
2022-11-24T17:46:37.980Z,6.65
2022-11-24T17:49:09.357Z,6.28
2022-11-24T17:51:40.866Z,6.15
2022-11-24T17:54:39.153Z,5.68
2022-11-24T17:57:02.497Z,5.53
2022-11-24T17:59:33.552Z,6.13
2022-11-24T18:02:01.981Z,9.52
2022-11-24T18:04:37.661Z,5.97
2022-11-24T18:07:11.012Z,6.30
2022-11-24T18:09:42.647Z,9.00
2022-11-24T18:12:13.255Z,6.22
2022-11-24T18:14:48.986Z,6.47
2022-11-24T18:17:32.302Z,6.90
2022-11-24T18:20:04.668Z,7.25
2022-11-24T18:22:57.896Z,10.65
2022-11-24T18:25:21.406Z,7.82
2022-11-24T18:27:50.028Z,10.27
2022-11-24T18:30:18.822Z,10.15
2022-11-24T18:32:51.323Z,7.65
2022-11-24T18:35:19.630Z,6.85
2022-11-24T18:37:59.870Z,6.90
2022-11-24T18:40:28.216Z,6.13
2022-11-24T18:42:58.747Z,6.15
2022-11-24T18:45:28.344Z,5.53
2022-11-24T18:47:56.745Z,6.03
2022-11-24T18:50:28.771Z,8.05
2022-11-24T18:53:06.247Z,7.38
2022-11-24T18:55:34.666Z,7.90
2022-11-24T18:58:02.982Z,8.30
2022-11-24T19:00:34.341Z,6.72
2022-11-24T19:03:07.051Z,7.18
2022-11-24T19:05:36.259Z,6.53
2022-11-24T19:08:15.463Z,9.02
2022-11-24T19:10:49.154Z,7.28
2022-11-24T19:13:21.201Z,8.30
2022-11-24T19:15:50.506Z,7.60
2022-11-24T19:18:19.886Z,6.70
2022-11-24T19:20:49.231Z,7.13
2022-11-24T19:23:19.442Z,6.45
2022-11-24T19:25:47.745Z,6.75
2022-11-24T19:28:16.052Z,7.65
2022-11-24T19:30:46.986Z,7.63
2022-11-24T19:33:17.377Z,6.30
2022-11-24T19:35:50.586Z,7.38
2022-11-24T19:38:18.830Z,7.15
2022-11-24T19:40:49.627Z,7.72
2022-11-24T19:43:17.944Z,8.27
2022-11-24T19:45:46.279Z,7.95
2022-11-24T19:48:16.861Z,6.78
2022-11-24T19:50:48.015Z,6.53
2022-11-24T19:53:18.293Z,7.32
2022-11-24T19:55:46.545Z,8.80
2022-11-24T19:58:15.446Z,7.30
2022-11-24T20:00:43.791Z,9.55
2022-11-24T20:03:12.101Z,7.05
2022-11-24T20:05:40.425Z,6.88
2022-11-24T20:08:08.996Z,8.85
2022-11-24T20:10:38.862Z,8.00
2022-11-24T20:13:07.181Z,7.45
2022-11-24T20:15:35.465Z,7.20
2022-11-24T20:18:03.905Z,7.85
2022-11-24T20:20:33.709Z,8.27
2022-11-24T20:23:05.127Z,8.98
2022-11-24T20:25:41.046Z,7.22
2022-11-24T20:28:12.541Z,9.30
2022-11-24T20:30:43.649Z,9.07
2022-11-24T20:33:17.972Z,9.25
2022-11-24T20:35:46.250Z,9.50
2022-11-24T20:38:16.899Z,9.10
2022-11-24T20:40:45.181Z,10.25
2022-11-24T20:43:16.276Z,10.70
2022-11-24T20:45:50.033Z,9.93
2022-11-24T20:48:18.341Z,9.40
2022-11-24T20:50:51.407Z,7.60
2022-11-24T20:53:19.944Z,10.15
2022-11-24T20:55:48.216Z,10.00
2022-11-24T20:58:16.483Z,8.23
2022-11-24T21:00:44.747Z,8.43
2022-11-24T21:03:13.076Z,7.35
2022-11-24T21:05:43.190Z,8.27
2022-11-24T21:08:11.472Z,9.63
2022-11-24T21:10:39.736Z,7.70
2022-11-24T21:13:08.096Z,7.47
2022-11-24T21:15:36.326Z,8.13
2022-11-24T21:18:07.467Z,7.00
2022-11-24T21:20:35.937Z,11.30
2022-11-24T21:23:07.236Z,8.25
2022-11-24T21:25:35.632Z,7.47
2022-11-24T21:28:04.261Z,8.57
2022-11-24T21:30:32.646Z,6.28
2022-11-24T21:33:03.894Z,6.88
2022-11-24T21:35:36.907Z,7.63
2022-11-24T21:38:05.503Z,9.75
2022-11-24T21:40:33.826Z,8.98
2022-11-24T21:43:02.262Z,8.18
2022-11-24T21:45:38.819Z,8.55
2022-11-24T21:48:07.952Z,8.25
2022-11-24T21:50:36.261Z,7.53
2022-11-24T21:53:05.076Z,10.85
2022-11-24T21:55:33.391Z,8.32
2022-11-24T21:58:01.675Z,7.25
2022-11-24T22:00:30.157Z,7.43
2022-11-24T22:03:00.781Z,6.43
2022-11-24T22:05:29.156Z,6.70
2022-11-24T22:08:00.602Z,7.00
2022-11-24T22:10:29.055Z,6.53
2022-11-24T22:12:57.398Z,7.55
2022-11-24T22:15:28.431Z,7.20
2022-11-24T22:18:02.226Z,7.13
2022-11-24T22:20:30.619Z,6.68
2022-11-24T22:22:58.980Z,6.40
2022-11-24T22:25:27.652Z,7.80
2022-11-24T22:28:03.714Z,7.65
2022-11-24T22:30:34.989Z,7.00
2022-11-24T22:33:06.154Z,9.20
2022-11-24T22:35:36.406Z,6.60
2022-11-24T22:38:07.620Z,7.40
2022-11-24T22:40:35.906Z,8.10
2022-11-24T22:43:05.254Z,7.68
2022-11-24T22:45:36.138Z,7.25
2022-11-24T22:48:04.569Z,9.02
2022-11-24T22:50:32.899Z,9.70
2022-11-24T22:53:04.265Z,8.38
2022-11-24T22:55:32.548Z,8.13
2022-11-24T22:58:00.897Z,8.20
2022-11-24T23:00:29.171Z,9.70
2022-11-24T23:02:57.663Z,7.18
2022-11-24T23:05:26.014Z,6.97
2022-11-24T23:07:54.371Z,7.57
2022-11-24T23:10:24.198Z,8.30
2022-11-24T23:12:54.917Z,7.80
2022-11-24T23:15:30.991Z,7.63
2022-11-24T23:17:59.301Z,7.75
2022-11-24T23:20:27.720Z,8.88
2022-11-24T23:23:00.093Z,9.13
2022-11-24T23:25:28.419Z,7.80
2022-11-24T23:27:56.726Z,9.10
2022-11-24T23:30:25.081Z,9.32
2022-11-24T23:32:54.186Z,9.52
2022-11-24T23:35:24.794Z,8.88
2022-11-24T23:38:10.059Z,9.45
2022-11-24T23:40:38.425Z,9.65
2022-11-24T23:43:09.022Z,9.23
2022-11-24T23:45:37.385Z,8.00
2022-11-24T23:48:06.210Z,7.75
2022-11-24T23:50:38.487Z,8.05
2022-11-24T23:53:06.814Z,9.30
2022-11-24T23:55:35.086Z,8.02
2022-11-24T23:58:03.801Z,7.40
